WetterOnline ( https://www.wetteronline.de )

Wetter aktuell Bayerisch Eisenstein

Aktuelles Wetter: Großer Arber (1446m)

6-stündlich | Neueste Meldungen
Ortszeit Temperatur Wetter
Mo, 28.11. 7:00 2.5° C bedeckt
Mo, 28.11. 1:00 0.0° C bedeckt
So, 27.11. 19:00 -2.1° C wolkig
So, 27.11. 13:00 -0.3° C wolkenlos
So, 27.11. 7:00 -3.4° C wolkig
So, 27.11. 1:00 -3.0° C wolkig
Sa, 26.11. 19:00 -1.7° C Nebel
Sa, 26.11. 13:00 -0.6° C Nebel
Ortszeit Temperatur Wetter
Mo, 28.11. 9:00 2.2° C bedeckt
Mo, 28.11. 8:40 2.4° C bedeckt
Mo, 28.11. 8:30 3.0° C bewölkt
Mo, 28.11. 8:20 3.0° C bewölkt
Mo, 28.11. 8:10 2.4° C wolkig
Mo, 28.11. 8:00 1.5° C leicht bewölkt
Mo, 28.11. 7:50 1.5° C leicht bewölkt
Mo, 28.11. 7:30 1.3° C bewölkt
Mo, 28.11. 7:00 2.5° C bedeckt
Mo, 28.11. 6:30 2.3° C bewölkt
Mo, 28.11. 6:00 1.8° C bedeckt
Ortszeit Relative Feuchte Sichtweite
Mo, 28.11. 7:00 16% >70 km
Mo, 28.11. 1:00 42% >70 km
So, 27.11. 19:00 65% >70 km
So, 27.11. 13:00 81% >70 km
So, 27.11. 7:00 83% >70 km
So, 27.11. 1:00 97% 9 km
Sa, 26.11. 19:00 100% 100 m
Sa, 26.11. 13:00 100% <100 m
Ortszeit Relative Feuchte Sichtweite
Mo, 28.11. 9:00 26% >70 km
Mo, 28.11. 8:40 22% -
Mo, 28.11. 8:30 17% >70 km
Mo, 28.11. 8:20 17% -
Mo, 28.11. 8:10 20% -
Mo, 28.11. 8:00 28% >70 km
Mo, 28.11. 7:50 28% -
Mo, 28.11. 7:30 26% >70 km
Mo, 28.11. 7:00 16% >70 km
Mo, 28.11. 6:30 16% >70 km
Mo, 28.11. 6:00 20% >70 km
Ortszeit Niederschlagsmenge Niederschlagsart
Mo, 28.11. 7:00 0.0 l/m2 in 12 Std. -
Mo, 28.11. 1:00 0.0 l/m2 in 6 Std. -
So, 27.11. 19:00 0.0 l/m2 in 12 Std. -
So, 27.11. 13:00 0.0 l/m2 in 6 Std. -
So, 27.11. 7:00 0.0 l/m2 in 12 Std. -
So, 27.11. 1:00 0.0 l/m2 in 6 Std. -
Sa, 26.11. 19:00 0.8 l/m2 in 12 Std. Schnee, Sprühregen
Sa, 26.11. 13:00 0.1 l/m2 in 6 Std. Schnee, Regen
Ortszeit Niederschlagsmenge Niederschlagsart
Mo, 28.11. 9:00 0.0 l/m2 in 1 Std. -
Mo, 28.11. 8:40 keine Meldung -
Mo, 28.11. 8:30 0.0 l/m2 in 1 Std. -
Mo, 28.11. 8:20 keine Meldung -
Mo, 28.11. 8:10 keine Meldung -
Mo, 28.11. 8:00 0.0 l/m2 in 1 Std. -
Mo, 28.11. 7:50 keine Meldung -
Mo, 28.11. 7:30 0.0 l/m2 in 1 Std. -
Mo, 28.11. 7:00 0.0 l/m2 in 1 Std. -
Mo, 28.11. 6:30 0.0 l/m2 in 1 Std. -
Mo, 28.11. 6:00 0.0 l/m2 in 1 Std. -
Ortszeit Stärke Spitze Richtung
km/h Bft. km/h Grad Sektor
Mo, 28.11. 7:00 7 2 29 180° S
Mo, 28.11. 1:00 25 4 43 150° SO
So, 27.11. 19:00 29 5 36 150° SO
So, 27.11. 13:00 15 3 26 180° S
So, 27.11. 7:00 6 1 24 230° SW
So, 27.11. 1:00 18 3 25 210° SW
Sa, 26.11. 19:00 7 2 40 280° W
Sa, 26.11. 13:00 15 3 43 290° W
Ortszeit Stärke Spitze Richtung
km/h Bft. km/h Grad Sektor
Mo, 28.11. 9:00 7 2 18 260° W
Mo, 28.11. 8:40 7 2 - 230° SW
Mo, 28.11. 8:30 11 2 18 230° SW
Mo, 28.11. 8:20 11 2 - 230° SW
Mo, 28.11. 8:10 13 3 - 230° SW
Mo, 28.11. 8:00 14 3 18 230° SW
Mo, 28.11. 7:50 14 3 - 230° SW
Mo, 28.11. 7:30 13 3 17 190° S
Mo, 28.11. 7:00 7 2 14 180° S
Mo, 28.11. 6:30 11 2 15 180° S
Mo, 28.11. 6:00 13 3 17 190° S
Ortszeit Untergrenze Bedeckung Gattung
total tief tief mittel hoch
Mo, 28.11. 7:00 2100 m 8/8 8/8 - - -
Mo, 28.11. 1:00 3900 m 8/8 8/8 - - -
So, 27.11. 19:00 7800 m 8/8 0/8 - - -
So, 27.11. 13:00 - 0/8 0/8 - - -
So, 27.11. 7:00 8400 m 7/8 0/8 - - -
So, 27.11. 1:00 30 m 5/8 5/8 - - -
Sa, 26.11. 19:00 <30 m 8/8 0/8 - - -
Sa, 26.11. 13:00 <30 m 8/8 0/8 - - -
Ortszeit Bedeckungsgrad in Achtel und Wolkenuntergrenze
Mo, 28.11. 9:00 2(1440m) 8(1800m)
Mo, 28.11. 8:40 8
Mo, 28.11. 8:30 2(1500m) 7(2700m) 7(3900m)
Mo, 28.11. 8:20 2(1500m) 7(2700m) 7(3900m)
Mo, 28.11. 8:10 6
Mo, 28.11. 8:00 1(2400m) 6(3600m) 6(5100m)
Mo, 28.11. 7:50 1(2400m) 6(3600m) 6(5100m)
Mo, 28.11. 7:30 6(2100m) 7(3000m) 8(3600m)
Mo, 28.11. 7:00 7(2100m) 8(2700m) 8(5100m)
Mo, 28.11. 6:30 7(2100m) 8(4500m) 8(5100m)
Mo, 28.11. 6:00 2(1500m) 8(2100m) 8(5400m)
Ortszeit Stationsdruck (hPa) Tendenz (hPa in 3 Std.)
Mo, 28.11. 7:00 852 - 0,7
Mo, 28.11. 1:00 854 - 1,8
So, 27.11. 19:00 857 - 1,5
So, 27.11. 13:00 860 - 1,3
So, 27.11. 7:00 862 - 0,3
So, 27.11. 1:00 863 - 0,6
Sa, 26.11. 19:00 863 + 0,4
Sa, 26.11. 13:00 863 + 0,6
Ortszeit Stationsdruck (hPa) Tendenz (hPa in 3 Std.)
Mo, 28.11. 9:00 851 - 0,4
Mo, 28.11. 8:40 852 keine Meldung
Mo, 28.11. 8:30 852 - 0,4
Mo, 28.11. 8:20 852 keine Meldung
Mo, 28.11. 8:10 852 keine Meldung
Mo, 28.11. 8:00 852 - 0,5
Mo, 28.11. 7:50 852 keine Meldung
Mo, 28.11. 7:30 852 - 0,6
Mo, 28.11. 7:00 852 - 0,7
Mo, 28.11. 6:30 852 - 0,9
Mo, 28.11. 6:00 852 - 1,2
Ortszeit Schneehöhe (cm)
Mo, 28.11. 7:00 30
Mo, 28.11. 1:00 34
So, 27.11. 19:00 36
So, 27.11. 13:00 36
So, 27.11. 7:00 36
So, 27.11. 1:00 36
Sa, 26.11. 19:00 37
Sa, 26.11. 13:00 36
Ortszeit Schneehöhe (cm)
Mo, 28.11. 9:00 30
Mo, 28.11. 8:40 30
Mo, 28.11. 8:30 30
Mo, 28.11. 8:20 30
Mo, 28.11. 8:10 30
Mo, 28.11. 8:00 30
Mo, 28.11. 7:50 30
Mo, 28.11. 7:30 30
Mo, 28.11. 7:00 30
Mo, 28.11. 6:30 30
Mo, 28.11. 6:00 30
Link zu dieser Seite / Seite empfehlen

Das Wetter in ...